createdAt,value
2023-02-26T00:01:52.100Z,0.38
2023-02-26T00:04:20.755Z,0.38
2023-02-26T00:06:57.584Z,0.37
2023-02-26T00:09:27.351Z,0.35
2023-02-26T00:11:56.262Z,0.35
2023-02-26T00:14:25.299Z,0.34
2023-02-26T00:17:24.753Z,0.35
2023-02-26T00:19:53.554Z,0.34
2023-02-26T00:22:22.693Z,0.34
2023-02-26T00:24:51.097Z,0.34
2023-02-26T00:27:19.520Z,0.33
2023-02-26T00:29:48.565Z,0.32
2023-02-26T00:32:18.239Z,0.31
2023-02-26T00:34:48.605Z,0.30
2023-02-26T00:37:54.986Z,0.29
2023-02-26T00:40:44.028Z,0.28
2023-02-26T00:43:24.785Z,0.28
2023-02-26T00:46:10.373Z,0.29
2023-02-26T00:49:22.568Z,0.29
2023-02-26T00:52:01.847Z,0.31
2023-02-26T00:54:32.093Z,0.32
2023-02-26T00:57:00.472Z,0.33
2023-02-26T00:59:28.763Z,0.35
2023-02-26T01:01:57.127Z,0.36
2023-02-26T01:04:26.153Z,0.37
2023-02-26T01:06:57.730Z,0.38
2023-02-26T01:09:28.751Z,0.38
2023-02-26T01:12:01.800Z,0.38
2023-02-26T01:14:34.406Z,0.39
2023-02-26T01:17:14.432Z,0.40
2023-02-26T01:20:01.648Z,0.42
2023-02-26T01:22:56.007Z,0.42
2023-02-26T01:25:39.380Z,0.42
2023-02-26T01:28:08.781Z,0.40
2023-02-26T01:30:38.479Z,0.39
2023-02-26T01:33:21.575Z,0.38
2023-02-26T01:36:22.758Z,0.38
2023-02-26T01:39:10.580Z,0.39
2023-02-26T01:42:12.491Z,0.38
2023-02-26T01:45:10.938Z,0.38
2023-02-26T01:47:48.609Z,0.40
2023-02-26T01:50:22.584Z,0.42
2023-02-26T01:52:50.980Z,0.42
2023-02-26T01:55:26.734Z,0.43
2023-02-26T01:58:00.500Z,0.45
2023-02-26T02:00:31.687Z,0.46
2023-02-26T02:03:01.181Z,0.45
2023-02-26T02:05:45.292Z,0.46
2023-02-26T02:08:13.777Z,0.45
2023-02-26T02:10:47.642Z,0.44
2023-02-26T02:13:38.146Z,0.44
2023-02-26T02:16:35.039Z,0.43
2023-02-26T02:19:33.723Z,0.44
2023-02-26T02:22:26.700Z,0.45
2023-02-26T02:25:27.586Z,0.45
2023-02-26T02:28:27.108Z,0.45
2023-02-26T02:30:57.093Z,0.47
2023-02-26T02:33:34.009Z,0.46
2023-02-26T02:36:14.963Z,0.48
2023-02-26T02:38:54.580Z,0.48
2023-02-26T02:41:37.745Z,0.48
2023-02-26T02:44:12.618Z,0.48
2023-02-26T02:46:44.261Z,0.48
2023-02-26T02:49:37.578Z,0.48
2023-02-26T02:52:28.742Z,0.49
2023-02-26T02:55:13.189Z,0.48
2023-02-26T02:57:52.993Z,0.46
2023-02-26T03:00:24.779Z,0.44
2023-02-26T03:03:31.483Z,0.44
2023-02-26T03:05:59.978Z,0.42
2023-02-26T03:08:34.473Z,0.42
2023-02-26T03:11:03.103Z,0.42
2023-02-26T03:13:31.957Z,0.43
2023-02-26T03:16:12.499Z,0.43
2023-02-26T03:19:07.984Z,0.43
2023-02-26T03:22:10.255Z,0.43
2023-02-26T03:25:07.754Z,0.43
2023-02-26T03:27:45.934Z,0.45
2023-02-26T03:30:33.068Z,0.46
2023-02-26T03:33:30.413Z,0.46
2023-02-26T03:36:14.649Z,0.47
2023-02-26T03:39:19.785Z,0.49
2023-02-26T03:42:06.768Z,0.50
2023-02-26T03:44:59.699Z,0.51
2023-02-26T03:47:31.182Z,0.52
2023-02-26T03:50:08.856Z,0.52
2023-02-26T03:52:42.218Z,0.52
2023-02-26T03:55:22.462Z,0.52
2023-02-26T03:57:50.875Z,0.51
2023-02-26T04:00:20.429Z,0.51
2023-02-26T04:03:02.085Z,0.50
2023-02-26T04:05:35.936Z,0.52
2023-02-26T04:08:04.406Z,0.52
2023-02-26T04:10:48.510Z,0.53
2023-02-26T04:13:16.960Z,0.54
2023-02-26T04:15:45.307Z,0.54
2023-02-26T04:18:13.645Z,0.54
2023-02-26T04:20:42.069Z,0.54
2023-02-26T04:23:10.507Z,0.55
2023-02-26T04:25:39.024Z,0.54
2023-02-26T04:28:07.509Z,0.54
2023-02-26T04:30:37.293Z,0.53
2023-02-26T04:33:05.643Z,0.53
2023-02-26T04:35:34.159Z,0.53
2023-02-26T04:38:02.620Z,0.52
2023-02-26T04:40:31.467Z,0.50
2023-02-26T04:42:59.921Z,0.49
2023-02-26T04:45:28.298Z,0.48
2023-02-26T04:47:56.942Z,0.47
2023-02-26T04:50:26.083Z,0.43
2023-02-26T04:52:54.442Z,0.41
2023-02-26T04:55:23.113Z,0.39
2023-02-26T04:57:52.132Z,0.36
2023-02-26T05:00:20.784Z,0.33
2023-02-26T05:02:49.135Z,0.30
2023-02-26T05:05:17.814Z,0.28
2023-02-26T05:07:46.391Z,0.26
2023-02-26T05:10:14.844Z,0.25
2023-02-26T05:12:43.185Z,0.25
2023-02-26T05:15:11.824Z,0.27
2023-02-26T05:17:40.279Z,0.27
2023-02-26T05:20:12.514Z,0.27
2023-02-26T05:22:42.956Z,0.28
2023-02-26T05:25:14.533Z,0.29
2023-02-26T05:27:43.115Z,0.27
2023-02-26T05:30:15.215Z,0.27
2023-02-26T05:32:44.722Z,0.26
2023-02-26T05:35:13.266Z,0.26
2023-02-26T05:37:41.887Z,0.24
2023-02-26T05:40:11.349Z,0.24
2023-02-26T05:42:40.810Z,0.24
2023-02-26T05:45:10.036Z,0.23
2023-02-26T05:47:38.999Z,0.24
2023-02-26T05:50:09.109Z,0.25
2023-02-26T05:52:37.732Z,0.25
2023-02-26T05:55:07.518Z,0.26
2023-02-26T05:57:36.358Z,0.25
2023-02-26T06:00:07.487Z,0.25
2023-02-26T06:02:35.984Z,0.27
2023-02-26T06:05:05.196Z,0.27
2023-02-26T06:07:33.586Z,0.29
2023-02-26T06:10:02.466Z,0.30
2023-02-26T06:12:30.849Z,0.31
2023-02-26T06:14:59.140Z,0.32
2023-02-26T06:17:27.838Z,0.33
2023-02-26T06:19:56.404Z,0.36
2023-02-26T06:22:24.898Z,0.37
2023-02-26T06:24:55.209Z,0.38
2023-02-26T06:27:24.282Z,0.40
2023-02-26T06:29:52.665Z,0.43
2023-02-26T06:32:21.120Z,0.44
2023-02-26T06:34:49.592Z,0.45
2023-02-26T06:37:17.953Z,0.47
2023-02-26T06:39:46.473Z,0.49
2023-02-26T06:42:14.934Z,0.50
2023-02-26T06:44:43.250Z,0.52
2023-02-26T06:47:11.897Z,0.54
2023-02-26T06:49:40.268Z,0.56
2023-02-26T06:52:08.660Z,0.59
2023-02-26T06:54:36.984Z,0.63
2023-02-26T06:57:05.573Z,0.67
2023-02-26T06:59:34.134Z,0.73
2023-02-26T07:02:02.708Z,0.80
2023-02-26T07:04:32.402Z,0.86
2023-02-26T07:07:01.219Z,0.94
2023-02-26T07:09:30.241Z,1.01
2023-02-26T07:11:59.154Z,1.10
2023-02-26T07:14:28.163Z,1.16
2023-02-26T07:16:58.335Z,1.23
2023-02-26T07:19:30.630Z,1.28
2023-02-26T07:21:58.942Z,1.32
2023-02-26T07:24:27.332Z,1.37
2023-02-26T07:26:55.615Z,1.42
2023-02-26T07:29:24.421Z,1.45
2023-02-26T07:31:54.625Z,1.47
2023-02-26T07:34:23.304Z,1.50
2023-02-26T07:36:51.622Z,1.50
2023-02-26T07:39:19.972Z,1.52
2023-02-26T07:41:49.328Z,1.54
2023-02-26T07:44:18.527Z,1.54
2023-02-26T07:46:47.024Z,1.55
2023-02-26T07:49:15.757Z,1.58
2023-02-26T07:51:46.994Z,1.61
2023-02-26T07:54:15.885Z,1.64
2023-02-26T07:56:44.905Z,1.68
2023-02-26T07:59:13.266Z,1.71
2023-02-26T08:01:41.704Z,1.72
2023-02-26T08:04:10.117Z,1.72
2023-02-26T08:06:38.915Z,1.72
2023-02-26T08:09:07.366Z,1.72
2023-02-26T08:11:39.944Z,1.73
2023-02-26T08:14:09.094Z,1.75
2023-02-26T08:16:37.615Z,1.77
2023-02-26T08:19:05.989Z,1.79
2023-02-26T08:21:34.617Z,1.81
2023-02-26T08:24:03.348Z,1.84
2023-02-26T08:26:34.870Z,1.85
2023-02-26T08:29:05.267Z,1.87
2023-02-26T08:31:35.502Z,1.90
2023-02-26T08:34:04.218Z,1.91
2023-02-26T08:36:32.861Z,1.95
2023-02-26T08:39:01.574Z,2.00
2023-02-26T08:41:32.399Z,2.04
2023-02-26T08:44:01.354Z,2.11
2023-02-26T08:46:30.386Z,2.17
2023-02-26T08:48:58.958Z,2.28
2023-02-26T08:51:27.530Z,2.38
2023-02-26T08:53:57.472Z,2.46
2023-02-26T08:56:26.895Z,2.52
2023-02-26T08:58:55.480Z,2.58
2023-02-26T09:01:24.471Z,2.62
2023-02-26T09:03:53.386Z,2.66
2023-02-26T09:06:22.720Z,2.73
2023-02-26T09:08:51.098Z,2.77
2023-02-26T09:11:19.618Z,2.75
2023-02-26T09:13:48.358Z,2.77
2023-02-26T09:16:16.988Z,2.79
2023-02-26T09:18:45.493Z,2.80
2023-02-26T09:21:14.543Z,2.82
2023-02-26T09:23:43.278Z,2.83
2023-02-26T09:26:12.094Z,2.84
2023-02-26T09:28:40.863Z,2.87
2023-02-26T09:31:09.633Z,2.89
2023-02-26T09:33:39.692Z,2.95
2023-02-26T09:36:08.941Z,3.00
2023-02-26T09:38:37.482Z,3.05
2023-02-26T09:41:19.979Z,3.09
2023-02-26T09:44:23.335Z,3.08
2023-02-26T09:46:58.584Z,3.09
2023-02-26T09:50:09.912Z,3.11
2023-02-26T09:52:55.294Z,3.10
2023-02-26T09:55:45.702Z,3.12
2023-02-26T09:58:30.188Z,3.21
2023-02-26T10:01:38.236Z,3.25
2023-02-26T10:04:39.835Z,3.21
2023-02-26T10:07:40.428Z,3.14
2023-02-26T10:10:31.296Z,3.09
2023-02-26T10:13:01.841Z,3.06
2023-02-26T10:15:44.037Z,3.09
2023-02-26T10:18:34.497Z,3.17
2023-02-26T10:21:30.284Z,3.27
2023-02-26T10:24:06.239Z,3.39
2023-02-26T10:26:58.684Z,3.49
2023-02-26T10:29:45.751Z,3.60
2023-02-26T10:32:46.865Z,3.73
2023-02-26T10:35:18.277Z,3.82
2023-02-26T10:37:59.132Z,3.87
2023-02-26T10:41:04.795Z,3.94
2023-02-26T10:43:49.502Z,4.11
2023-02-26T10:46:53.080Z,4.31
2023-02-26T10:49:51.068Z,4.50
2023-02-26T10:52:29.386Z,4.66
2023-02-26T10:55:32.187Z,4.83
2023-02-26T10:58:22.512Z,4.94
2023-02-26T11:00:55.483Z,4.98
2023-02-26T11:03:40.384Z,4.92
2023-02-26T11:06:10.330Z,4.87
2023-02-26T11:08:50.532Z,4.87
2023-02-26T11:11:51.465Z,4.84
2023-02-26T11:14:22.999Z,5.07
2023-02-26T11:16:56.533Z,5.24
2023-02-26T11:19:42.550Z,5.11
2023-02-26T11:22:15.118Z,4.97
2023-02-26T11:24:49.461Z,5.00
2023-02-26T11:27:30.709Z,5.06
2023-02-26T11:30:14.901Z,5.16
2023-02-26T11:32:45.525Z,5.34
2023-02-26T11:35:16.961Z,5.47
2023-02-26T11:37:53.372Z,5.60
2023-02-26T11:40:42.366Z,5.68
2023-02-26T11:43:21.210Z,5.68
2023-02-26T11:45:58.147Z,5.70
2023-02-26T11:48:49.226Z,5.81
2023-02-26T11:51:26.607Z,5.92
2023-02-26T11:54:01.570Z,6.04
2023-02-26T11:56:44.082Z,6.12
2023-02-26T11:59:25.075Z,6.20
2023-02-26T12:01:53.953Z,6.33
2023-02-26T12:04:27.604Z,6.43
2023-02-26T12:07:00.146Z,6.50
2023-02-26T12:09:28.546Z,6.62
2023-02-26T12:12:15.268Z,6.74
2023-02-26T12:15:18.478Z,6.92
2023-02-26T12:18:31.953Z,7.33
2023-02-26T12:21:29.366Z,7.43
2023-02-26T12:24:19.778Z,7.27
2023-02-26T12:27:33.281Z,6.94
2023-02-26T12:30:49.595Z,6.45
2023-02-26T12:33:43.964Z,5.97
2023-02-26T12:36:49.481Z,5.65
2023-02-26T12:39:42.498Z,5.37
2023-02-26T12:42:45.430Z,5.25
2023-02-26T12:45:54.051Z,5.23
2023-02-26T12:48:47.951Z,5.29
2023-02-26T12:51:43.367Z,5.41
2023-02-26T12:54:57.471Z,5.88
2023-02-26T12:57:36.480Z,6.43
2023-02-26T13:00:38.650Z,7.00
2023-02-26T13:04:20.171Z,7.80
2023-02-26T13:06:56.552Z,8.44
2023-02-26T13:10:04.979Z,8.75
2023-02-26T13:12:58.117Z,9.04
2023-02-26T13:15:47.916Z,9.45
2023-02-26T13:18:27.351Z,9.52
2023-02-26T13:21:00.648Z,9.28
2023-02-26T13:23:40.806Z,9.16
2023-02-26T13:26:13.838Z,9.23
2023-02-26T13:29:05.047Z,9.03
2023-02-26T13:31:45.731Z,8.59
2023-02-26T13:34:40.561Z,8.46
2023-02-26T13:37:42.423Z,8.59
2023-02-26T13:41:08.325Z,8.82
2023-02-26T13:44:02.587Z,9.25
2023-02-26T13:46:58.768Z,9.70
2023-02-26T13:49:35.501Z,9.81
2023-02-26T13:52:04.515Z,9.85
2023-02-26T13:54:46.683Z,9.71
2023-02-26T13:57:42.040Z,9.72
2023-02-26T14:00:28.306Z,9.72
2023-02-26T14:03:24.557Z,9.12
2023-02-26T14:06:20.942Z,8.07
2023-02-26T14:08:57.113Z,7.18
2023-02-26T14:12:01.438Z,6.50
2023-02-26T14:14:46.201Z,5.83
2023-02-26T14:17:20.659Z,5.37
2023-02-26T14:19:55.891Z,4.99
2023-02-26T14:22:38.462Z,4.74
2023-02-26T14:25:34.850Z,4.55
2023-02-26T14:28:25.107Z,4.46
2023-02-26T14:31:06.246Z,4.45
2023-02-26T14:33:45.654Z,4.46
2023-02-26T14:36:33.865Z,4.54
2023-02-26T14:39:09.248Z,4.65
2023-02-26T14:41:41.431Z,4.88
2023-02-26T14:44:23.432Z,5.54
2023-02-26T14:46:53.616Z,6.45
2023-02-26T14:49:34.980Z,7.21
2023-02-26T14:52:15.855Z,7.42
2023-02-26T14:55:23.040Z,7.34
2023-02-26T14:57:56.629Z,7.13
2023-02-26T15:00:52.531Z,6.83
2023-02-26T15:03:57.988Z,6.48
2023-02-26T15:06:49.147Z,6.13
2023-02-26T15:09:38.826Z,5.84
2023-02-26T15:12:32.718Z,5.60
2023-02-26T15:15:24.378Z,5.38
2023-02-26T15:18:07.698Z,5.11
2023-02-26T15:21:40.681Z,4.82
2023-02-26T15:24:12.725Z,4.47
2023-02-26T15:26:53.493Z,4.29
2023-02-26T15:29:29.188Z,4.12
2023-02-26T15:32:05.855Z,3.94
2023-02-26T15:34:34.458Z,3.76
2023-02-26T15:37:03.810Z,3.59
2023-02-26T15:39:32.148Z,3.47
2023-02-26T15:42:02.731Z,3.35
2023-02-26T15:44:33.338Z,3.21
2023-02-26T15:47:05.507Z,3.08
2023-02-26T15:49:44.546Z,2.96
2023-02-26T15:52:19.468Z,2.87
2023-02-26T15:54:56.372Z,2.78
2023-02-26T15:57:26.626Z,2.72
2023-02-26T16:00:16.541Z,2.65
2023-02-26T16:02:45.806Z,2.58
2023-02-26T16:05:20.589Z,2.51
2023-02-26T16:07:49.874Z,2.46
2023-02-26T16:10:34.769Z,2.39
2023-02-26T16:13:08.884Z,2.33
2023-02-26T16:15:40.784Z,2.26
2023-02-26T16:18:18.827Z,2.20
2023-02-26T16:20:59.819Z,2.15
2023-02-26T16:23:44.584Z,2.10
2023-02-26T16:26:56.438Z,2.06
2023-02-26T16:29:29.333Z,2.04
2023-02-26T16:32:02.973Z,2.03
2023-02-26T16:34:43.938Z,1.99
2023-02-26T16:37:29.232Z,1.98
2023-02-26T16:40:21.219Z,1.97
2023-02-26T16:43:23.755Z,1.94
2023-02-26T16:45:57.099Z,1.92
2023-02-26T16:48:41.639Z,1.91
2023-02-26T16:51:20.054Z,1.91
2023-02-26T16:53:59.971Z,1.88
2023-02-26T16:56:32.537Z,1.86
2023-02-26T16:59:25.006Z,1.82
2023-02-26T17:02:05.973Z,1.78
2023-02-26T17:04:36.848Z,1.71
2023-02-26T17:07:27.460Z,1.62
2023-02-26T17:10:21.643Z,1.53
2023-02-26T17:13:03.830Z,1.47
2023-02-26T17:15:38.834Z,1.38
2023-02-26T17:18:08.483Z,1.29
2023-02-26T17:20:38.208Z,1.22
2023-02-26T17:23:09.312Z,1.16
2023-02-26T17:25:42.364Z,1.09
2023-02-26T17:28:22.579Z,1.04
2023-02-26T17:30:52.161Z,0.99
2023-02-26T17:33:21.869Z,0.95
2023-02-26T17:35:52.253Z,0.89
2023-02-26T17:38:20.819Z,0.83
2023-02-26T17:40:50.995Z,0.80
2023-02-26T17:43:19.479Z,0.76
2023-02-26T17:45:48.102Z,0.73
2023-02-26T17:48:17.711Z,0.70
2023-02-26T17:50:57.014Z,0.68
2023-02-26T17:53:40.804Z,0.68
2023-02-26T17:56:26.672Z,0.66
2023-02-26T17:58:57.445Z,0.66
2023-02-26T18:01:30.005Z,0.67
2023-02-26T18:04:00.875Z,0.68
2023-02-26T18:06:35.709Z,0.69
2023-02-26T18:09:05.976Z,0.72
2023-02-26T18:11:34.928Z,0.75
2023-02-26T18:14:03.464Z,0.76
2023-02-26T18:16:40.216Z,0.79
2023-02-26T18:19:10.934Z,0.82
2023-02-26T18:21:39.251Z,0.84
2023-02-26T18:24:08.219Z,0.87
2023-02-26T18:26:36.662Z,0.89
2023-02-26T18:29:05.077Z,0.92
2023-02-26T18:31:35.224Z,0.93
2023-02-26T18:34:04.847Z,0.96
2023-02-26T18:36:37.898Z,0.99
2023-02-26T18:39:13.428Z,1.01
2023-02-26T18:41:41.865Z,1.04
2023-02-26T18:44:10.207Z,1.07
2023-02-26T18:46:40.335Z,1.09
2023-02-26T18:49:19.158Z,1.12
2023-02-26T18:51:47.941Z,1.14
2023-02-26T18:54:16.486Z,1.16
2023-02-26T18:56:46.765Z,1.17
2023-02-26T18:59:15.257Z,1.19
2023-02-26T19:01:44.742Z,1.20
2023-02-26T19:04:13.314Z,1.21
2023-02-26T19:06:42.773Z,1.21
2023-02-26T19:09:11.139Z,1.21
2023-02-26T19:11:39.706Z,1.20
2023-02-26T19:14:08.698Z,1.18
2023-02-26T19:16:39.381Z,1.16
2023-02-26T19:19:11.199Z,1.15
2023-02-26T19:21:41.090Z,1.14
2023-02-26T19:24:12.029Z,1.14
2023-02-26T19:26:42.139Z,1.13
2023-02-26T19:29:16.695Z,1.12
2023-02-26T19:31:45.704Z,1.12
2023-02-26T19:34:14.753Z,1.13
2023-02-26T19:36:48.326Z,1.13
2023-02-26T19:39:18.821Z,1.14
2023-02-26T19:41:52.652Z,1.14
2023-02-26T19:44:22.609Z,1.16
2023-02-26T19:46:51.448Z,1.16
2023-02-26T19:49:20.395Z,1.17
2023-02-26T19:51:49.491Z,1.18
2023-02-26T19:54:18.415Z,1.19
2023-02-26T19:56:47.248Z,1.19
2023-02-26T19:59:16.983Z,1.20
2023-02-26T20:01:49.198Z,1.20
2023-02-26T20:04:18.729Z,1.19
2023-02-26T20:06:47.238Z,1.17
2023-02-26T20:09:17.180Z,1.17
2023-02-26T20:11:46.181Z,1.17
2023-02-26T20:14:14.894Z,1.16
2023-02-26T20:16:43.698Z,1.15
2023-02-26T20:19:13.849Z,1.14
2023-02-26T20:21:42.434Z,1.12
2023-02-26T20:24:11.164Z,1.12
2023-02-26T20:26:39.720Z,1.11
2023-02-26T20:29:09.008Z,1.09
2023-02-26T20:31:37.578Z,1.07
2023-02-26T20:34:06.681Z,1.06
2023-02-26T20:36:35.250Z,1.04
2023-02-26T20:39:04.058Z,1.01
2023-02-26T20:41:32.691Z,0.98
2023-02-26T20:44:01.209Z,0.96
2023-02-26T20:46:30.886Z,0.93
2023-02-26T20:48:59.864Z,0.90
2023-02-26T20:51:28.793Z,0.88
2023-02-26T20:53:57.447Z,0.87
2023-02-26T20:56:26.290Z,0.87
2023-02-26T20:58:54.611Z,0.87
2023-02-26T21:01:24.297Z,0.86
2023-02-26T21:03:54.134Z,0.87
2023-02-26T21:06:23.047Z,0.88
2023-02-26T21:08:51.860Z,0.88
2023-02-26T21:11:20.575Z,0.89
2023-02-26T21:13:49.888Z,0.89
2023-02-26T21:16:18.290Z,0.89
2023-02-26T21:18:46.672Z,0.91
2023-02-26T21:21:15.403Z,0.91
2023-02-26T21:23:44.123Z,0.93
2023-02-26T21:26:12.904Z,0.95
2023-02-26T21:28:41.355Z,0.97
2023-02-26T21:31:09.916Z,0.99
2023-02-26T21:33:38.320Z,0.99
2023-02-26T21:36:08.970Z,1.00
2023-02-26T21:38:38.362Z,1.02
2023-02-26T21:41:07.048Z,1.04
2023-02-26T21:43:35.687Z,1.06
2023-02-26T21:46:05.133Z,1.08
2023-02-26T21:48:33.611Z,1.09
2023-02-26T21:51:02.048Z,1.09
2023-02-26T21:53:30.405Z,1.11
2023-02-26T21:55:58.820Z,1.12
2023-02-26T21:58:27.636Z,1.11
2023-02-26T22:00:59.765Z,1.11
2023-02-26T22:03:28.181Z,1.11
2023-02-26T22:05:56.535Z,1.11
2023-02-26T22:08:24.930Z,1.10
2023-02-26T22:10:53.275Z,1.10
2023-02-26T22:13:21.688Z,1.10
2023-02-26T22:15:50.001Z,1.10
2023-02-26T22:18:18.465Z,1.09
2023-02-26T22:20:48.064Z,1.10
2023-02-26T22:23:16.443Z,1.11
2023-02-26T22:25:45.986Z,1.13
2023-02-26T22:28:15.266Z,1.15
2023-02-26T22:30:43.904Z,1.15
2023-02-26T22:33:12.269Z,1.16
2023-02-26T22:35:41.269Z,1.17
2023-02-26T22:38:09.693Z,1.17
2023-02-26T22:40:38.083Z,1.19
2023-02-26T22:43:06.578Z,1.19
2023-02-26T22:45:34.964Z,1.19
2023-02-26T22:48:04.043Z,1.19
2023-02-26T22:50:33.258Z,1.22
2023-02-26T22:53:02.152Z,1.23
2023-02-26T22:55:30.686Z,1.23
2023-02-26T22:57:59.014Z,1.24
2023-02-26T23:00:27.922Z,1.25
2023-02-26T23:02:56.247Z,1.25
2023-02-26T23:05:24.753Z,1.23
2023-02-26T23:07:53.130Z,1.24
2023-02-26T23:10:21.634Z,1.22
2023-02-26T23:12:49.960Z,1.22
2023-02-26T23:15:18.948Z,1.23
2023-02-26T23:17:47.349Z,1.23
2023-02-26T23:20:16.651Z,1.24
2023-02-26T23:22:44.986Z,1.25
2023-02-26T23:25:13.486Z,1.25
2023-02-26T23:27:41.954Z,1.25
2023-02-26T23:30:11.551Z,1.25
2023-02-26T23:32:40.111Z,1.24
2023-02-26T23:35:09.075Z,1.23
2023-02-26T23:37:37.499Z,1.22
2023-02-26T23:40:08.219Z,1.22
2023-02-26T23:42:36.690Z,1.21
2023-02-26T23:45:05.643Z,1.20
2023-02-26T23:47:34.217Z,1.19
2023-02-26T23:50:02.886Z,1.18
2023-02-26T23:52:31.236Z,1.16
2023-02-26T23:54:59.535Z,1.15
2023-02-26T23:57:28.538Z,1.13
2023-02-26T23:59:57.086Z,1.11
